Pagrindinis puslapis
METAR-TAF:

METAR-TAF

Oro uostai :

Veiko sala, Jungtinės Amerikos Valstijos

platuma: 19-17N, ilguma: 166-39E, Aukštis: 4 m

Dabartinis oras

Ataskaita buvo paskelbta 34 minutes, ne 01:58 UTC
Vėjas 15 kt iš Rytų/Šiaurės Rytų
Temperatūra 26°C
Drėgmė 54%
Slėgis 1017 hPa
Matomumas 10 km arba daugiau
Mažai debesys ne aukštis 29000 ft

METAR: PWAK 260158Z AUTO 06015KT 9999 FEW290 26/16 A3002 RMK AO2 SLP172 T02610156 $

Laikas: 14:32 (02:32 UTC)

Prognozė

Ataskaita buvo paskelbta 4 valandos ir 32 minutes, ne 22:00 UTC
Prognozė galioja nuo 25 metu 22 UTC su 27 metu 04 UTC
Vėjas 15 kt iš Rytų/Šiaurės Rytų su gūsio iki 20 kt
Matomumas 10 km arba daugiau
Išsisklaidę debesys ne aukštis 3000 ft

TAF: PWAK 252200Z 2522/2704 07015G20KT 9999 SCT030 QNH3002INS TX27/2602Z TN23/2617Z FOR MIL USE ONLY

Orai ataskaitas ir orų prognozės (METAR, TAF).

turimą stotys yra geltonos ir raudonos taškus žemėlapyje.

Perkelti pele per norėdami pamatyti stoties vardą.

Tada spustelėkite, norėdami matyti oro stebėjimo ir prognozės.

Norėdami pakeisti žemėlapį: spustelėkite ant žalios mygtukų su juodo kryžiaus žemyn,; žalią mygtuką su brūkšneliu, jei norite nutolinti; arba žalių rodyklių gretimoms žemėlapius.


METAR-TAF: